Time;durP1;ratioP1;P1;durP2;ratioP2;P2;SDS_P1;SDS_P2;PMS_P1;PMS_P2;Temp;Humidity;BMP_temperature;BMP_pressure;BME280_temperature;BME280_humidity;BME280_pressure;Samples;Min_cycle;Max_cycle;Signal;HPM_P1;HPM_P2
2023/04/27 00:00:13;;;;;;;9.32;4.88;;;5.00;99.90;;;;;;4932445;29;20040;-66
2023/04/27 00:02:38;;;;;;;9.52;4.55;;;5.00;99.90;;;;;;4929643;29;20156;-67
2023/04/27 00:05:09;;;;;;;8.98;4.68;;;4.90;99.90;;;;;;4932963;29;20360;-67
2023/04/27 00:07:38;;;;;;;10.15;4.50;;;4.90;99.90;;;;;;4928037;29;20044;-67
2023/04/27 00:10:04;;;;;;;7.63;4.70;;;4.90;99.90;;;;;;4931930;29;20126;-67
2023/04/27 00:12:29;;;;;;;9.27;5.38;;;4.90;99.90;;;;;;4930231;29;20067;-66
2023/04/27 00:14:55;;;;;;;8.40;4.90;;;4.80;99.90;;;;;;4932298;29;20467;-65
2023/04/27 00:17:23;;;;;;;7.85;4.85;;;4.80;99.90;;;;;;4932122;29;20044;-67
2023/04/27 00:19:48;;;;;;;8.65;5.20;;;4.80;99.90;;;;;;4931636;29;20051;-66
2023/04/27 00:22:14;;;;;;;8.48;4.65;;;4.70;99.90;;;;;;4931888;29;20051;-65
2023/04/27 00:24:40;;;;;;;9.30;5.38;;;4.70;99.90;;;;;;4928051;29;20053;-66
2023/04/27 00:27:06;;;;;;;7.63;4.78;;;4.70;99.90;;;;;;4931556;29;20122;-66
2023/04/27 00:29:32;;;;;;;10.20;5.00;;;4.60;99.90;;;;;;4931185;29;20095;-66
2023/04/27 00:31:58;;;;;;;8.23;4.75;;;4.60;99.90;;;;;;4930601;29;20480;-67
2023/04/27 00:34:23;;;;;;;8.70;4.90;;;4.60;99.90;;;;;;4926170;29;20048;-66
2023/04/27 00:36:49;;;;;;;8.38;5.30;;;4.60;99.90;;;;;;4929243;29;20186;-66
2023/04/27 00:39:15;;;;;;;8.13;5.20;;;4.60;99.90;;;;;;4931187;29;20048;-66
2023/04/27 00:41:41;;;;;;;10.20;5.40;;;4.60;99.90;;;;;;4931148;29;20069;-66
2023/04/27 00:44:06;;;;;;;7.88;5.10;;;4.50;99.90;;;;;;4930893;29;20392;-66
2023/04/27 00:46:32;;;;;;;10.27;4.80;;;4.50;99.90;;;;;;4931933;29;20070;-66
2023/04/27 00:48:59;;;;;;;7.32;4.82;;;4.50;99.90;;;;;;4929407;29;20102;-66
2023/04/27 00:51:27;;;;;;;8.73;4.97;;;4.50;99.90;;;;;;4931323;29;20047;-66
2023/04/27 00:53:53;;;;;;;8.52;4.80;;;4.50;99.90;;;;;;4931657;29;20143;-66
2023/04/27 00:56:19;;;;;;;8.65;4.82;;;4.40;99.90;;;;;;4930762;29;20043;-66
2023/04/27 00:58:44;;;;;;;7.50;4.43;;;4.40;99.90;;;;;;4933402;29;20062;-65
2023/04/27 01:01:10;;;;;;;8.60;5.20;;;4.40;99.90;;;;;;4930948;29;20114;-66
2023/04/27 01:03:36;;;;;;;8.90;5.10;;;4.40;99.90;;;;;;4932763;29;20355;-66
2023/04/27 01:06:02;;;;;;;6.80;4.60;;;4.30;99.90;;;;;;4926358;29;20048;-66
2023/04/27 01:08:30;;;;;;;7.90;5.32;;;4.30;99.90;;;;;;4929941;29;20376;-66
2023/04/27 01:10:56;;;;;;;10.32;5.45;;;4.30;99.90;;;;;;4935441;29;20047;-66
2023/04/27 01:13:21;;;;;;;8.30;5.25;;;4.30;99.90;;;;;;4931222;29;20392;-66
2023/04/27 01:15:47;;;;;;;8.35;5.20;;;4.20;99.90;;;;;;4934609;29;20190;-66
2023/04/27 01:18:13;;;;;;;9.30;5.35;;;4.20;99.90;;;;;;4932637;29;20044;-66
2023/04/27 01:20:39;;;;;;;9.57;6.13;;;4.20;99.90;;;;;;4934769;29;20044;-66
2023/04/27 01:23:07;;;;;;;8.30;5.43;;;4.10;99.90;;;;;;4929791;29;20483;-67
2023/04/27 01:25:32;;;;;;;11.07;5.53;;;4.10;99.90;;;;;;4933985;29;20047;-67
2023/04/27 01:27:58;;;;;;;9.15;5.85;;;4.10;99.90;;;;;;4934436;29;20395;-67
2023/04/27 01:30:24;;;;;;;8.15;4.85;;;4.10;99.90;;;;;;4934748;29;20054;-67
2023/04/27 01:32:50;;;;;;;9.13;5.28;;;4.10;99.90;;;;;;4934302;29;20174;-67
2023/04/27 01:35:16;;;;;;;9.50;5.93;;;4.00;99.90;;;;;;4933232;29;20444;-67
2023/04/27 01:37:41;;;;;;;8.63;5.78;;;4.00;99.90;;;;;;4933502;29;20155;-66
2023/04/27 01:40:07;;;;;;;8.48;5.40;;;4.00;99.90;;;;;;4932987;29;20266;-66
2023/04/27 01:42:33;;;;;;;12.05;5.90;;;4.00;99.90;;;;;;4933521;29;20036;-66
2023/04/27 01:44:59;;;;;;;8.43;5.60;;;3.90;99.90;;;;;;4935564;29;20126;-66
2023/04/27 01:47:26;;;;;;;10.18;6.22;;;3.90;99.90;;;;;;4933983;29;20048;-68
2023/04/27 01:49:51;;;;;;;10.18;5.82;;;3.90;99.90;;;;;;4934645;29;20123;-66
2023/04/27 01:52:17;;;;;;;8.55;5.65;;;3.80;99.90;;;;;;4929008;29;20114;-65
2023/04/27 01:54:43;;;;;;;8.15;5.28;;;3.90;99.90;;;;;;4934874;29;20039;-66
2023/04/27 01:57:08;;;;;;;8.93;5.22;;;3.80;99.90;;;;;;4935563;29;20203;-67
2023/04/27 01:59:34;;;;;;;9.25;5.45;;;3.80;99.90;;;;;;4935305;29;20416;-67
2023/04/27 02:02:00;;;;;;;9.23;5.65;;;3.80;99.90;;;;;;4930986;29;20047;-67
2023/04/27 02:04:25;;;;;;;9.40;5.68;;;3.70;99.90;;;;;;4934899;29;20067;-66
2023/04/27 02:06:51;;;;;;;9.32;5.97;;;3.70;99.90;;;;;;4934822;29;20185;-66
2023/04/27 02:09:16;;;;;;;9.52;5.28;;;3.70;99.90;;;;;;4935016;29;20452;-67
2023/04/27 02:11:42;;;;;;;7.97;5.00;;;3.70;99.90;;;;;;4934111;29;20484;-67
2023/04/27 02:14:08;;;;;;;9.90;5.05;;;3.60;99.90;;;;;;4935993;29;20052;-67
2023/04/27 02:16:33;;;;;;;10.48;5.32;;;3.70;99.90;;;;;;4928627;29;20119;-66
2023/04/27 02:18:59;;;;;;;9.63;5.43;;;3.60;99.90;;;;;;4932347;29;20071;-66
2023/04/27 02:21:25;;;;;;;9.10;5.28;;;3.60;99.90;;;;;;4928988;29;20122;-67
2023/04/27 02:23:50;;;;;;;8.13;5.22;;;3.60;99.90;;;;;;4932836;28;20068;-66
2023/04/27 02:26:20;;;;;;;9.13;5.70;;;3.60;99.90;;;;;;4928939;29;20052;-65
2023/04/27 02:28:47;;;;;;;9.15;5.18;;;3.60;99.90;;;;;;4927089;29;20051;-67
2023/04/27 02:31:13;;;;;;;8.68;5.20;;;3.60;99.90;;;;;;4933711;29;20039;-67
2023/04/27 02:33:40;;;;;;;9.07;5.47;;;3.60;99.90;;;;;;4931687;29;20071;-66
2023/04/27 02:36:06;;;;;;;8.13;5.05;;;3.60;99.90;;;;;;4930950;29;20039;-67
2023/04/27 02:38:32;;;;;;;7.68;5.00;;;3.60;99.90;;;;;;4930186;29;20040;-67
2023/04/27 02:40:58;;;;;;;8.73;5.15;;;3.50;99.90;;;;;;4932115;29;20047;-67
2023/04/27 02:43:23;;;;;;;8.77;6.03;;;3.50;99.90;;;;;;4933131;29;20048;-67
2023/04/27 02:45:49;;;;;;;10.82;6.22;;;3.50;99.90;;;;;;4927240;29;20069;-67
2023/04/27 02:48:15;;;;;;;10.40;6.18;;;3.40;99.90;;;;;;4930098;29;20044;-67
2023/04/27 02:50:41;;;;;;;10.75;6.30;;;3.40;99.90;;;;;;4933921;29;20160;-66
2023/04/27 02:53:08;;;;;;;10.25;6.22;;;3.40;99.90;;;;;;4931727;29;20451;-66
2023/04/27 02:55:34;;;;;;;10.77;6.18;;;3.40;99.90;;;;;;4931974;29;20062;-66
2023/04/27 02:57:59;;;;;;;9.60;6.60;;;3.40;99.90;;;;;;4932982;29;20399;-66
2023/04/27 03:00:25;;;;;;;9.63;6.32;;;3.30;99.90;;;;;;4932609;29;20464;-67
2023/04/27 03:02:51;;;;;;;10.88;6.15;;;3.30;99.90;;;;;;4933682;29;20138;-67
2023/04/27 03:05:17;;;;;;;9.20;6.05;;;3.30;99.90;;;;;;4933933;29;20119;-67
2023/04/27 03:07:43;;;;;;;11.13;6.53;;;3.30;99.90;;;;;;4933853;29;20483;-67
2023/04/27 03:10:09;;;;;;;10.25;6.57;;;3.30;99.90;;;;;;4931677;29;20465;-66
2023/04/27 03:12:37;;;;;;;9.75;6.03;;;3.20;99.90;;;;;;4933135;29;20051;-67
2023/04/27 03:15:03;;;;;;;9.32;5.88;;;3.20;99.90;;;;;;4933362;29;20078;-67
2023/04/27 03:17:29;;;;;;;9.20;5.97;;;3.20;99.90;;;;;;4932447;29;20120;-67
2023/04/27 03:19:54;;;;;;;11.98;6.47;;;3.20;99.90;;;;;;4932582;29;20044;-67
2023/04/27 03:22:20;;;;;;;11.40;6.57;;;3.10;99.90;;;;;;4933878;29;20142;-66
2023/04/27 03:24:46;;;;;;;10.45;6.28;;;3.10;99.90;;;;;;4932229;29;20402;-66
2023/04/27 03:27:11;;;;;;;11.32;6.60;;;3.10;99.90;;;;;;4933094;29;20371;-66
2023/04/27 03:29:37;;;;;;;11.50;6.75;;;3.10;99.90;;;;;;4932956;29;20039;-67
2023/04/27 03:32:03;;;;;;;11.82;6.72;;;3.10;99.90;;;;;;4932419;29;20098;-67
2023/04/27 03:34:29;;;;;;;11.05;6.93;;;3.00;99.90;;;;;;4932609;29;20032;-67
2023/04/27 03:36:55;;;;;;;12.38;7.05;;;3.00;99.90;;;;;;4932409;29;20040;-67
2023/04/27 03:39:21;;;;;;;11.93;7.55;;;3.00;99.90;;;;;;4930415;29;20047;-67
2023/04/27 03:41:46;;;;;;;11.10;6.75;;;3.00;99.90;;;;;;4932322;29;20047;-67
2023/04/27 03:44:12;;;;;;;10.20;6.60;;;3.00;99.90;;;;;;4932914;29;20036;-67
2023/04/27 03:46:38;;;;;;;12.00;6.68;;;2.90;99.90;;;;;;4933030;29;20047;-66
2023/04/27 03:49:03;;;;;;;10.35;6.68;;;3.00;99.90;;;;;;4929088;29;20047;-67
2023/04/27 03:51:33;;;;;;;10.35;6.38;;;3.00;99.90;;;;;;4926228;29;20036;-66
2023/04/27 03:53:59;;;;;;;10.05;6.55;;;3.00;99.90;;;;;;4928629;29;20075;-67
2023/04/27 03:56:24;;;;;;;11.50;6.72;;;3.00;99.90;;;;;;4931069;29;20131;-67
2023/04/27 03:58:50;;;;;;;9.45;6.30;;;3.00;99.90;;;;;;4930125;29;20486;-67
2023/04/27 04:01:17;;;;;;;8.55;5.25;;;3.00;99.90;;;;;;4932347;29;20067;-68
2023/04/27 04:03:43;;;;;;;10.63;6.13;;;2.90;99.90;;;;;;4932127;29;20039;-67
2023/04/27 04:06:09;;;;;;;10.40;6.10;;;2.90;99.90;;;;;;4926844;29;20154;-67
2023/04/27 04:08:38;;;;;;;9.77;6.30;;;2.90;99.90;;;;;;4931025;29;20043;-66
2023/04/27 04:11:03;;;;;;;10.05;6.55;;;2.90;99.90;;;;;;4931348;29;20048;-67
2023/04/27 04:13:29;;;;;;;10.70;6.30;;;2.90;99.90;;;;;;4931446;29;20063;-66
2023/04/27 04:16:08;;;;;;;8.85;5.88;;;2.80;99.90;;;;;;4929354;29;20139;-68
2023/04/27 04:18:35;;;;;;;9.07;6.10;;;2.90;99.90;;;;;;4930273;29;20086;-68
2023/04/27 04:21:01;;;;;;;9.23;5.68;;;2.90;99.90;;;;;;4931311;29;20051;-68
2023/04/27 04:23:27;;;;;;;9.20;6.03;;;2.90;99.90;;;;;;4932003;29;20049;-68
2023/04/27 04:25:56;;;;;;;7.90;5.38;;;2.80;99.90;;;;;;4931493;29;20127;-67
2023/04/27 04:28:22;;;;;;;8.73;5.32;;;2.80;99.90;;;;;;4932886;29;20059;-67
2023/04/27 04:30:48;;;;;;;8.77;5.30;;;2.80;99.90;;;;;;4932579;29;20051;-67
2023/04/27 04:33:14;;;;;;;9.55;5.85;;;2.80;99.90;;;;;;4943352;29;20047;-67
2023/04/27 04:35:43;;;;;;;10.50;6.13;;;2.80;99.90;;;;;;4929812;29;20355;-67
2023/04/27 04:38:09;;;;;;;11.13;6.10;;;2.80;99.90;;;;;;4924865;29;20106;-67
2023/04/27 04:40:38;;;;;;;9.15;6.10;;;2.80;99.90;;;;;;4931286;29;20059;-67
2023/04/27 04:43:04;;;;;;;12.30;7.13;;;2.90;99.90;;;;;;4930000;29;20040;-67
2023/04/27 04:45:29;;;;;;;11.13;6.05;;;2.90;99.90;;;;;;4931339;29;20078;-67
2023/04/27 04:47:55;;;;;;;10.43;6.40;;;2.90;99.90;;;;;;4925227;29;20071;-67
2023/04/27 04:50:22;;;;;;;10.45;6.70;;;2.90;99.90;;;;;;4930631;29;20040;-66
2023/04/27 04:52:48;;;;;;;10.30;6.88;;;3.00;99.90;;;;;;4926002;29;20051;-67
2023/04/27 04:55:13;;;;;;;10.18;6.53;;;3.10;99.90;;;;;;4930949;29;20043;-67
2023/04/27 04:57:39;;;;;;;12.70;7.10;;;3.40;99.90;;;;;;4931787;29;20059;-67
2023/04/27 05:00:10;;;;;;;8.93;5.80;;;3.50;99.90;;;;;;4931777;29;20044;-67
2023/04/27 05:02:39;;;;;;;8.88;6.00;;;3.70;99.90;;;;;;4927630;29;20051;-67
2023/04/27 05:05:08;;;;;;;8.63;5.63;;;3.80;99.90;;;;;;4928751;29;20119;-67
2023/04/27 05:07:34;;;;;;;9.43;6.25;;;3.90;99.90;;;;;;4930555;29;20062;-66
2023/04/27 05:09:59;;;;;;;9.65;6.20;;;4.00;99.90;;;;;;4929748;29;20465;-67
2023/04/27 05:12:25;;;;;;;9.18;5.75;;;4.10;99.90;;;;;;4930314;29;20127;-66
2023/04/27 05:14:51;;;;;;;11.95;6.60;;;4.30;99.90;;;;;;4930512;29;20062;-67
2023/04/27 05:17:17;;;;;;;8.38;5.60;;;4.30;99.90;;;;;;4929852;29;20132;-67
2023/04/27 05:19:42;;;;;;;11.43;6.13;;;4.30;99.90;;;;;;4931191;29;20051;-67
2023/04/27 05:22:08;;;;;;;10.07;5.88;;;4.40;99.90;;;;;;4931731;29;20072;-67
2023/04/27 05:24:34;;;;;;;10.20;6.53;;;4.60;99.90;;;;;;4930341;29;20040;-67
2023/04/27 05:27:00;;;;;;;10.23;6.05;;;4.60;99.90;;;;;;4931269;29;20043;-67
2023/04/27 05:29:26;;;;;;;10.38;6.35;;;4.70;99.90;;;;;;4931388;29;20040;-68
2023/04/27 05:31:52;;;;;;;9.52;6.18;;;4.70;99.90;;;;;;4930908;29;20058;-68
2023/04/27 05:34:18;;;;;;;9.50;5.85;;;4.80;99.90;;;;;;4924911;29;20441;-67
2023/04/27 05:36:45;;;;;;;9.45;6.00;;;4.90;99.90;;;;;;4929361;29;20040;-67
2023/04/27 05:39:11;;;;;;;9.82;6.13;;;5.00;99.90;;;;;;4939494;29;20340;-67
2023/04/27 05:41:37;;;;;;;9.93;6.57;;;5.00;99.90;;;;;;4931055;28;20072;-66
2023/04/27 05:44:03;;;;;;;12.95;6.50;;;5.10;99.90;;;;;;4933991;29;20747;-67
2023/04/27 05:46:28;;;;;;;10.85;5.93;;;5.20;99.90;;;;;;4932530;29;20043;-67
2023/04/27 05:48:54;;;;;;;10.35;5.72;;;5.30;99.90;;;;;;4923672;29;20067;-67
2023/04/27 05:51:20;;;;;;;9.23;5.43;;;5.40;99.90;;;;;;4932786;29;20048;-67
2023/04/27 05:53:45;;;;;;;8.27;5.88;;;5.40;99.90;;;;;;4934018;29;20062;-66
2023/04/27 05:56:11;;;;;;;10.82;6.40;;;5.50;99.90;;;;;;4931069;29;20488;-67
2023/04/27 05:58:37;;;;;;;9.73;6.32;;;5.60;99.90;;;;;;4932071;29;20042;-67
2023/04/27 06:01:02;;;;;;;10.27;6.45;;;5.70;99.90;;;;;;4933274;29;20087;-68
2023/04/27 06:03:29;;;;;;;9.50;6.25;;;5.80;99.90;;;;;;4930455;29;20078;-68
2023/04/27 06:05:56;;;;;;;9.48;6.38;;;5.80;99.90;;;;;;4933806;29;20055;-66
2023/04/27 06:08:22;;;;;;;11.48;5.95;;;5.90;99.90;;;;;;4933215;29;20059;-68
2023/04/27 06:10:48;;;;;;;10.43;6.13;;;6.10;99.90;;;;;;4931952;29;20468;-67
2023/04/27 06:13:15;;;;;;;8.75;6.05;;;6.10;99.90;;;;;;4927755;29;20443;-66
2023/04/27 06:15:40;;;;;;;12.32;6.22;;;6.20;99.90;;;;;;4933314;29;20508;-66
2023/04/27 06:18:06;;;;;;;11.07;5.78;;;6.30;99.90;;;;;;4928007;29;20058;-65
2023/04/27 06:20:31;;;;;;;8.85;5.90;;;6.30;99.90;;;;;;4928241;29;20511;-67
2023/04/27 06:22:58;;;;;;;9.65;6.20;;;6.40;99.90;;;;;;4930215;29;20091;-66
2023/04/27 06:25:26;;;;;;;9.30;5.75;;;6.50;99.90;;;;;;4916450;29;20424;-66
2023/04/27 06:27:51;;;;;;;10.73;5.53;;;6.60;99.90;;;;;;4926006;29;20344;-66
2023/04/27 06:30:17;;;;;;;11.40;4.88;;;6.70;99.90;;;;;;4933965;29;20047;-66
2023/04/27 06:32:43;;;;;;;9.13;4.82;;;6.80;99.90;;;;;;4934419;29;20036;-66
2023/04/27 06:35:09;;;;;;;8.45;5.15;;;6.90;99.90;;;;;;4934478;29;20483;-67
2023/04/27 06:37:34;;;;;;;8.00;4.70;;;7.00;99.90;;;;;;4933666;29;20865;-67
2023/04/27 06:40:00;;;;;;;10.20;4.47;;;7.10;99.90;;;;;;4932343;29;20139;-66
2023/04/27 06:42:26;;;;;;;8.80;4.80;;;7.20;99.90;;;;;;4926045;29;20036;-66
2023/04/27 06:44:55;;;;;;;8.40;4.55;;;7.30;99.90;;;;;;4930833;29;20131;-66
2023/04/27 06:47:21;;;;;;;9.50;4.65;;;7.50;99.90;;;;;;4929405;29;20398;-66
2023/04/27 06:49:47;;;;;;;10.50;4.63;;;7.50;99.90;;;;;;4933622;29;20064;-65
2023/04/27 06:52:13;;;;;;;7.68;4.72;;;7.60;99.90;;;;;;4933203;29;20040;-66
2023/04/27 06:54:38;;;;;;;11.20;4.68;;;7.80;99.90;;;;;;4928112;29;20122;-67
2023/04/27 06:57:05;;;;;;;7.97;4.22;;;7.90;99.90;;;;;;4922839;29;20047;-67
2023/04/27 06:59:30;;;;;;;7.95;3.90;;;8.00;99.90;;;;;;4930762;29;20051;-68
2023/04/27 07:01:56;;;;;;;9.80;4.20;;;8.10;99.90;;;;;;4930135;29;20130;-66
2023/04/27 07:04:22;;;;;;;8.10;4.60;;;8.10;99.90;;;;;;4930578;29;20138;-66
2023/04/27 07:06:48;;;;;;;6.43;3.30;;;8.30;99.90;;;;;;4916103;29;20074;-66
2023/04/27 07:09:13;;;;;;;7.20;3.80;;;8.40;99.90;;;;;;4924329;29;20058;-68
2023/04/27 07:11:39;;;;;;;7.70;3.60;;;8.50;99.90;;;;;;4931070;29;20051;-66
2023/04/27 07:14:05;;;;;;;7.53;4.05;;;8.70;99.90;;;;;;4929536;29;20142;-67
2023/04/27 07:16:30;;;;;;;6.63;3.70;;;8.70;99.90;;;;;;4931438;29;20047;-68
2023/04/27 07:18:56;;;;;;;8.50;3.40;;;8.80;99.90;;;;;;4932362;29;20379;-66
2023/04/27 07:21:21;;;;;;;10.25;3.50;;;8.90;99.90;;;;;;4932495;29;20043;-68
2023/04/27 07:23:47;;;;;;;6.68;3.20;;;9.00;99.90;;;;;;4932589;29;20071;-67
2023/04/27 07:26:13;;;;;;;7.88;3.10;;;9.10;99.90;;;;;;4930639;29;20077;-67
2023/04/27 07:28:38;;;;;;;8.55;3.80;;;9.20;99.90;;;;;;4932515;29;20046;-66
2023/04/27 07:31:05;;;;;;;6.55;3.28;;;9.30;99.90;;;;;;4930939;29;20048;-66
2023/04/27 07:33:32;;;;;;;6.10;3.20;;;9.40;99.90;;;;;;4934143;29;20392;-66
2023/04/27 07:35:58;;;;;;;7.20;3.25;;;9.30;99.90;;;;;;4931599;29;20039;-68
2023/04/27 07:38:24;;;;;;;6.75;2.75;;;9.40;99.90;;;;;;4932940;29;20044;-66
2023/04/27 07:40:51;;;;;;;5.78;2.90;;;9.50;99.90;;;;;;4926219;29;20040;-67
2023/04/27 07:43:17;;;;;;;6.38;3.20;;;9.70;99.90;;;;;;4931791;29;20055;-68
2023/04/27 07:45:43;;;;;;;6.47;3.40;;;9.80;99.90;;;;;;4930738;29;20147;-68
2023/04/27 07:48:08;;;;;;;5.57;2.70;;;9.80;99.90;;;;;;4924347;29;20376;-67
2023/04/27 07:50:34;;;;;;;5.30;2.70;;;9.90;99.90;;;;;;4930852;29;20074;-67
2023/04/27 07:53:00;;;;;;;9.25;2.63;;;10.00;99.90;;;;;;4931913;29;20063;-67
2023/04/27 07:55:26;;;;;;;7.53;2.72;;;10.20;99.90;;;;;;4930089;29;20134;-67
2023/04/27 07:57:57;;;;;;;7.35;2.40;;;10.20;99.90;;;;;;4931996;29;20086;-67
2023/04/27 08:00:26;;;;;;;7.53;3.00;;;10.30;99.90;;;;;;4930270;29;20170;-67
2023/04/27 08:02:53;;;;;;;4.40;2.05;;;10.20;99.90;;;;;;4933068;29;20039;-67
2023/04/27 08:05:19;;;;;;;7.10;2.83;;;10.30;99.90;;;;;;4926330;29;20086;-67
2023/04/27 08:07:44;;;;;;;5.80;2.47;;;10.40;99.90;;;;;;4929021;29;20435;-67
2023/04/27 08:10:10;;;;;;;5.10;2.03;;;10.50;99.90;;;;;;4931385;29;20070;-68
2023/04/27 08:12:35;;;;;;;5.63;2.17;;;10.50;99.90;;;;;;4931319;29;20122;-67
2023/04/27 08:15:01;;;;;;;7.13;2.50;;;10.60;99.90;;;;;;4931718;29;20127;-66
2023/04/27 08:17:27;;;;;;;5.80;2.42;;;10.70;99.90;;;;;;4928626;29;20490;-65
2023/04/27 08:19:52;;;;;;;7.45;2.10;;;10.70;99.90;;;;;;4931948;29;20051;-67
2023/04/27 08:22:18;;;;;;;7.88;2.20;;;10.80;99.90;;;;;;4931753;29;20468;-66
2023/04/27 08:24:44;;;;;;;5.47;2.17;;;10.90;99.90;;;;;;4931579;29;20036;-67
2023/04/27 08:27:10;;;;;;;6.28;2.60;;;11.00;99.90;;;;;;4929691;29;20048;-66
2023/04/27 08:29:35;;;;;;;5.47;2.22;;;11.10;99.90;;;;;;4930326;29;20054;-65
2023/04/27 08:32:03;;;;;;;5.03;2.03;;;11.20;99.90;;;;;;4924273;29;20051;-67
2023/04/27 08:34:28;;;;;;;5.72;2.65;;;11.20;99.90;;;;;;4930370;29;20103;-67
2023/04/27 08:36:55;;;;;;;5.80;2.40;;;11.30;99.90;;;;;;4929828;29;20043;-67
2023/04/27 08:39:21;;;;;;;6.50;2.38;;;11.40;99.90;;;;;;4930798;29;20059;-67
2023/04/27 08:41:47;;;;;;;5.05;1.77;;;11.40;99.90;;;;;;4925233;29;20047;-68
2023/04/27 08:44:12;;;;;;;4.47;2.03;;;11.40;99.90;;;;;;4922654;29;20040;-67
2023/04/27 08:46:38;;;;;;;4.43;1.73;;;11.40;99.90;;;;;;4929086;29;20056;-67
2023/04/27 08:49:05;;;;;;;5.15;1.80;;;11.60;99.90;;;;;;4931109;29;20380;-66
2023/04/27 08:51:32;;;;;;;4.57;1.50;;;11.70;99.90;;;;;;4928173;29;20051;-66
2023/04/27 08:53:58;;;;;;;4.05;1.70;;;11.60;99.90;;;;;;4921287;29;20061;-67
2023/04/27 08:56:26;;;;;;;5.20;2.00;;;11.60;99.90;;;;;;4932458;29;20039;-67
2023/04/27 08:58:53;;;;;;;5.32;2.30;;;11.60;99.90;;;;;;4927948;29;20143;-63
2023/04/27 09:01:19;;;;;;;4.95;2.20;;;11.70;99.90;;;;;;4931017;29;20130;-65
2023/04/27 09:03:45;;;;;;;3.83;2.00;;;11.70;99.90;;;;;;4927864;29;20063;-66
2023/04/27 09:06:12;;;;;;;5.25;1.92;;;11.70;99.90;;;;;;4932490;29;20071;-65
2023/04/27 09:08:48;;;;;;;5.18;2.30;;;11.80;99.90;;;;;;4927224;29;20058;-66
2023/04/27 09:11:35;;;;;;;5.13;2.00;;;12.00;99.90;;;;;;4929550;29;20051;-68
2023/04/27 09:14:14;;;;;;;5.80;2.50;;;12.10;99.90;;;;;;4912031;29;20684;-68
2023/04/27 09:16:41;;;;;;;5.60;2.42;;;12.00;99.10;;;;;;4922084;29;20059;-69
2023/04/27 09:19:09;;;;;;;6.03;2.40;;;12.00;99.50;;;;;;4928087;29;20158;-67
2023/04/27 09:21:38;;;;;;;6.68;2.53;;;12.20;99.90;;;;;;4931325;29;20398;-68
2023/04/27 09:24:12;;;;;;;5.50;2.63;;;12.10;98.60;;;;;;4931135;29;20048;-68
2023/04/27 09:26:38;;;;;;;6.68;2.72;;;12.20;99.50;;;;;;4926306;29;20066;-68
2023/04/27 09:29:04;;;;;;;7.60;2.83;;;12.30;99.90;;;;;;4927988;29;20141;-68
2023/04/27 09:31:31;;;;;;;5.40;2.45;;;12.40;99.90;;;;;;4932909;29;20051;-68
2023/04/27 09:33:57;;;;;;;7.75;2.60;;;12.50;99.60;;;;;;4934064;29;20159;-68
2023/04/27 09:36:24;;;;;;;6.00;2.70;;;12.60;99.40;;;;;;4934119;29;20120;-69
2023/04/27 09:38:51;;;;;;;7.35;2.88;;;12.60;96.90;;;;;;4934995;29;20363;-67
2023/04/27 09:41:18;;;;;;;8.32;3.00;;;12.70;96.00;;;;;;4939462;28;20055;-69
2023/04/27 09:43:47;;;;;;;5.55;2.42;;;12.70;95.00;;;;;;4934441;29;20131;-68
2023/04/27 09:46:13;;;;;;;7.47;3.20;;;12.80;95.40;;;;;;4934246;29;20479;-67
2023/04/27 09:48:40;;;;;;;6.25;2.60;;;12.80;95.60;;;;;;4934059;29;20067;-66
2023/04/27 09:51:06;;;;;;;5.07;2.40;;;12.80;95.60;;;;;;4932829;29;20067;-67
2023/04/27 09:53:40;;;;;;;5.82;2.42;;;12.90;96.10;;;;;;4930988;29;20146;-67
2023/04/27 09:56:25;;;;;;;6.20;2.72;;;13.10;96.80;;;;;;4935142;29;20047;-68
2023/04/27 09:59:06;;;;;;;8.73;3.15;;;13.20;96.60;;;;;;4934015;29;20464;-68
2023/04/27 10:01:53;;;;;;;7.55;3.00;;;13.40;97.30;;;;;;4934008;29;20043;-68
2023/04/27 10:04:41;;;;;;;4.43;2.30;;;13.50;93.20;;;;;;4923050;29;20064;-68
2023/04/27 10:07:11;;;;;;;8.52;2.90;;;13.50;94.80;;;;;;4935224;29;20047;-69
2023/04/27 10:09:50;;;;;;;6.43;2.65;;;13.30;92.70;;;;;;4933963;29;20039;-68
2023/04/27 10:12:21;;;;;;;5.70;2.70;;;13.40;90.70;;;;;;4932646;29;20059;-66
2023/04/27 10:14:58;;;;;;;6.78;3.00;;;13.30;91.60;;;;;;4931795;29;20052;-68
2023/04/27 10:17:32;;;;;;;5.75;2.50;;;13.50;93.20;;;;;;4934499;29;20047;-66
2023/04/27 10:20:00;;;;;;;5.90;2.95;;;13.60;91.80;;;;;;4932823;29;20044;-67
2023/04/27 10:22:47;;;;;;;6.22;2.80;;;13.40;90.80;;;;;;4926561;29;20131;-68
2023/04/27 10:25:17;;;;;;;7.30;3.08;;;13.40;88.10;;;;;;4926259;29;20047;-66
2023/04/27 10:27:47;;;;;;;5.70;2.88;;;13.50;85.20;;;;;;4943742;28;20046;-67
2023/04/27 10:30:13;;;;;;;5.53;2.70;;;13.60;90.00;;;;;;4925627;29;20118;-67
2023/04/27 10:32:50;;;;;;;6.75;3.10;;;13.70;90.60;;;;;;4927723;29;20532;-68
2023/04/27 10:35:16;;;;;;;5.85;3.10;;;13.80;90.00;;;;;;4932319;29;20051;-65
2023/04/27 10:37:42;;;;;;;6.50;2.88;;;13.90;88.90;;;;;;4927019;29;20039;-67
2023/04/27 10:40:13;;;;;;;6.63;3.15;;;13.90;85.80;;;;;;4931917;29;20040;-68
2023/04/27 10:42:39;;;;;;;5.53;3.00;;;14.00;84.00;;;;;;4934043;29;20079;-67
2023/04/27 10:45:05;;;;;;;7.30;3.35;;;14.00;84.30;;;;;;4933696;29;20048;-67
2023/04/27 10:47:44;;;;;;;6.13;2.97;;;14.10;85.90;;;;;;4932515;29;20046;-68
2023/04/27 10:50:14;;;;;;;7.22;3.05;;;14.20;84.00;;;;;;4932517;29;20062;-66
2023/04/27 10:52:45;;;;;;;8.60;3.60;;;14.30;84.80;;;;;;4933786;29;20047;-68
2023/04/27 10:55:20;;;;;;;7.63;4.00;;;14.30;84.70;;;;;;4934259;29;20066;-67
2023/04/27 10:57:56;;;;;;;5.85;3.55;;;14.50;81.90;;;;;;4934601;29;20051;-67
2023/04/27 11:00:26;;;;;;;6.97;2.95;;;14.60;82.90;;;;;;4929644;29;20052;-68
2023/04/27 11:02:57;;;;;;;6.03;3.03;;;14.70;84.20;;;;;;4913252;29;20059;-68
2023/04/27 11:05:32;;;;;;;6.22;3.10;;;14.80;84.30;;;;;;4929040;29;20058;-67
2023/04/27 11:08:13;;;;;;;6.50;3.47;;;14.70;82.30;;;;;;4932651;29;20043;-66
2023/04/27 11:10:51;;;;;;;10.70;3.35;;;14.90;78.50;;;;;;4931450;29;20078;-67
2023/04/27 11:13:23;;;;;;;6.72;3.03;;;14.80;81.90;;;;;;4930299;29;20043;-69
2023/04/27 11:15:55;;;;;;;8.38;3.45;;;15.00;82.50;;;;;;4925251;29;20203;-68
2023/04/27 11:18:34;;;;;;;5.73;3.23;;;15.00;81.50;;;;;;4931869;29;20222;-66
2023/04/27 11:21:17;;;;;;;9.05;3.83;;;15.00;75.80;;;;;;4931349;29;20051;-67
2023/04/27 11:23:43;;;;;;;8.35;3.75;;;15.20;76.80;;;;;;4931250;29;20049;-67
2023/04/27 11:26:13;;;;;;;8.23;4.10;;;15.30;76.30;;;;;;4930873;29;20050;-66
2023/04/27 11:28:40;;;;;;;5.95;3.30;;;15.40;76.40;;;;;;4928333;29;20115;-66
2023/04/27 11:31:06;;;;;;;6.78;3.50;;;15.60;76.40;;;;;;4932796;29;20039;-66
2023/04/27 11:33:32;;;;;;;7.78;3.83;;;15.40;73.10;;;;;;4931125;29;20047;-65
2023/04/27 11:35:58;;;;;;;5.88;3.60;;;15.60;74.90;;;;;;4931698;29;20044;-67
2023/04/27 11:38:26;;;;;;;7.88;4.05;;;15.80;74.60;;;;;;4931198;29;20055;-68
2023/04/27 11:40:59;;;;;;;6.28;3.30;;;15.60;71.20;;;;;;4931138;29;20142;-67
2023/04/27 11:43:25;;;;;;;7.00;3.53;;;15.70;69.90;;;;;;4934053;29;20058;-68
2023/04/27 11:45:52;;;;;;;8.95;3.50;;;15.90;71.80;;;;;;4934261;29;20059;-68
2023/04/27 11:48:19;;;;;;;6.72;3.88;;;16.10;71.30;;;;;;4932202;29;20131;-66
2023/04/27 11:50:48;;;;;;;7.10;3.33;;;16.20;71.60;;;;;;4932765;29;20442;-67
2023/04/27 11:53:14;;;;;;;7.90;3.90;;;16.20;71.80;;;;;;4918844;29;20063;-68
2023/04/27 11:55:40;;;;;;;6.80;3.78;;;16.30;71.40;;;;;;4914975;29;20040;-69
2023/04/27 11:58:13;;;;;;;7.60;3.70;;;16.40;70.50;;;;;;4925860;29;20079;-68
2023/04/27 12:00:39;;;;;;;6.15;3.70;;;16.40;69.60;;;;;;4923691;29;20043;-67
2023/04/27 12:03:04;;;;;;;6.65;3.60;;;16.40;70.30;;;;;;4932812;29;20151;-68
2023/04/27 12:05:30;;;;;;;6.80;3.40;;;16.50;71.40;;;;;;4932308;29;20356;-67
2023/04/27 12:07:56;;;;;;;6.50;3.60;;;16.60;71.80;;;;;;4914955;29;20055;-68
2023/04/27 12:10:21;;;;;;;6.07;3.47;;;16.50;69.80;;;;;;4932518;29;20460;-67
2023/04/27 12:12:47;;;;;;;7.50;3.85;;;16.60;70.40;;;;;;4933273;29;20427;-68
2023/04/27 12:15:12;;;;;;;5.85;3.53;;;16.60;69.30;;;;;;4933660;29;20056;-68
2023/04/27 12:17:39;;;;;;;9.38;4.07;;;16.80;69.50;;;;;;4927625;29;20411;-67
2023/04/27 12:20:05;;;;;;;5.28;3.28;;;16.70;69.80;;;;;;4932674;29;20052;-68
2023/04/27 12:22:31;;;;;;;5.93;3.35;;;16.80;69.50;;;;;;4933746;29;20043;-68
2023/04/27 12:24:57;;;;;;;7.22;3.38;;;16.90;69.30;;;;;;4933416;29;20138;-67
2023/04/27 12:27:22;;;;;;;6.40;3.40;;;16.90;67.20;;;;;;4933191;29;20138;-67
2023/04/27 12:29:48;;;;;;;8.18;3.70;;;17.00;66.80;;;;;;4932907;29;20044;-67
2023/04/27 12:32:13;;;;;;;6.43;3.53;;;17.10;66.50;;;;;;4933273;29;20392;-67
2023/04/27 12:34:39;;;;;;;7.13;3.78;;;17.00;64.70;;;;;;4932310;29;20043;-68
2023/04/27 12:37:05;;;;;;;6.45;3.60;;;16.90;63.70;;;;;;4931947;29;20060;-67
2023/04/27 12:39:31;;;;;;;5.28;3.40;;;16.80;63.60;;;;;;4933466;29;20043;-68
2023/04/27 12:41:57;;;;;;;6.90;3.55;;;16.70;64.40;;;;;;4932915;29;20153;-68
2023/04/27 12:44:23;;;;;;;5.88;3.15;;;16.90;64.90;;;;;;4933857;29;20090;-68
2023/04/27 12:46:49;;;;;;;5.53;3.08;;;17.10;65.80;;;;;;4933102;29;20456;-68
2023/04/27 12:49:15;;;;;;;7.90;3.50;;;17.20;65.70;;;;;;4932900;29;20055;-68